Atlas, MI

1:11 PM EST on February 01, 2015 (GMT -0500)
Kelbel Weather | Change Station
CLOSE
Current Station
Personal Weather Station
Location: Goodrich, MI
Elevation: 892 ft
Nearby Weather Stations

Elev 892 ft 42.93 °N, 83.47 °W | Updated 3 minutes ago

Snow
Snow
18.0 °F
Feels Like 7 °F
N
8.9
Wind Variable Wind from ENE

Today
High -- | Low -- °F
--% Chance of Precip.
Yesterday
High -- | Low -- °F
Precip. -- in
7:49 AM 5:46 PM
Waxing Gibbous, 95% visible
Pressure 30.10 in
Visibility 0.5 miles
Clouds
Windchill 7 °F
Dew Point 14 °F
Humidity 85%
Rainfall 0.00 in
Snow Depth Not available.
UV Not available.
Pollen .10 out of 12
Air Quality Not available.
Flu Activity Not available.
METAR KFNT 011753Z 05013KT 1/2SM R09/3500V4000FT SN VV013 M07/M11 A3006 RMK AO2 SLP191 P0003 60014 T10721106 11061 21072 58025

More Conditions Fewer Conditions

Pressure 30.10 in
Visibility 0.5 miles
Clouds
Windchill 7 °F
Dew Point 14 °F
Humidity 85%
Rainfall 0.00 in
Snow Depth Not available.
UV Not available.
Pollen .10 out of 12
Air Quality Not available.
Flu Activity Not available.
METAR KFNT 011753Z 05013KT 1/2SM R09/3500V4000FT SN VV013 M07/M11 A3006 RMK AO2 SLP191 P0003 60014 T10721106 11061 21072 58025

More Conditions Fewer Conditions

10-Day Weather Forecast

Almanac

Astronomy

Feb. 01, 2015 Rise Set
Actual Time
Civil Twilight
Nautical Twilight
Astronomical Twilight
Moon
Length of Visible Light
Length of Day
Tomorrow will be .
, % of the Moon is Illuminated

Today's Extremes

State Highs State Lows

Community

WunderPhotos

Upload Photos

1,792,420 photos uploaded!

WunderBlogs® & News

Nearby

Air Quality

  Air Quality AQ Index Pollutant
Not available.

Snow Depth

Station Depth Elevation

Earthquake Activity

City Distance Mag. Time & Date
Minimum magnitude displayed is 2.5.

Coastal Water Temperatures

Place Temperature

Nearby Weather Stations